Time;durP1;ratioP1;P1;durP2;ratioP2;P2;SDS_P1;SDS_P2;PMS_P1;PMS_P2;Temp;Humidity;BMP_temperature;BMP_pressure;BME280_temperature;BME280_humidity;BME280_pressure;Samples;Min_cycle;Max_cycle;Signal;HPM_P1;HPM_P2
2023/08/05 00:00:37;;;;;;;11.30;4.80;;;;;;;15.18;100.00;100872.42;106163;1253;61557;-72
2023/08/05 00:03:04;;;;;;;8.10;4.70;;;;;;;15.14;100.00;100865.13;106466;1254;74012;-73
2023/08/05 00:05:31;;;;;;;8.40;5.10;;;;;;;15.09;100.00;100858.05;106428;1253;70036;-71
2023/08/05 00:07:57;;;;;;;11.00;5.20;;;;;;;15.06;100.00;100850.80;106142;1259;72439;-71
2023/08/05 00:10:24;;;;;;;9.30;5.10;;;;;;;15.03;100.00;100847.77;106215;1257;61283;-72
2023/08/05 00:12:51;;;;;;;11.10;5.50;;;;;;;15.01;100.00;100852.19;106342;1256;61125;-73
2023/08/05 00:15:18;;;;;;;9.00;5.20;;;;;;;14.99;100.00;100855.42;107891;1253;74598;-72
2023/08/05 00:17:45;;;;;;;9.50;5.10;;;;;;;14.96;100.00;100849.48;109251;1253;70104;-72
2023/08/05 00:20:12;;;;;;;9.40;5.70;;;;;;;14.93;100.00;100852.60;107233;1256;72415;-73
2023/08/05 00:22:39;;;;;;;9.40;5.40;;;;;;;14.91;100.00;100855.27;106265;1257;61774;-72
2023/08/05 00:25:06;;;;;;;9.50;5.50;;;;;;;14.87;100.00;100861.45;108425;1258;59070;-72
2023/08/05 00:27:33;;;;;;;11.40;5.60;;;;;;;14.85;100.00;100856.34;106115;1259;73688;-72
2023/08/05 00:30:00;;;;;;;11.00;5.60;;;;;;;14.83;100.00;100858.63;106050;1261;71188;-71
2023/08/05 00:32:27;;;;;;;9.50;6.20;;;;;;;14.80;100.00;100862.91;106983;1257;72727;-71
2023/08/05 00:34:54;;;;;;;11.80;5.30;;;;;;;14.77;100.00;100867.94;106841;1259;61271;-72
2023/08/05 00:37:21;;;;;;;10.60;5.30;;;;;;;14.73;100.00;100871.49;106966;1256;61180;-71
2023/08/05 00:39:48;;;;;;;9.90;5.30;;;;;;;14.67;100.00;100870.31;106734;1259;73722;-71
2023/08/05 00:42:18;;;;;;;11.30;5.50;;;;;;;14.64;100.00;100873.02;106122;1258;71189;-72
2023/08/05 00:44:46;;;;;;;8.80;5.40;;;;;;;14.60;100.00;100868.67;105841;1257;72364;-72
2023/08/05 00:47:16;;;;;;;10.60;5.60;;;;;;;14.58;100.00;100863.30;105926;1259;62102;-71
2023/08/05 00:49:44;;;;;;;11.30;6.00;;;;;;;14.55;100.00;100859.77;105947;1259;61256;-72
2023/08/05 00:52:13;;;;;;;10.40;6.40;;;;;;;14.52;100.00;100855.42;105950;1256;74698;-75
2023/08/05 00:54:41;;;;;;;14.10;7.00;;;;;;;14.50;100.00;100862.34;105820;1256;71286;-72
2023/08/05 00:57:09;;;;;;;12.50;6.50;;;;;;;14.47;100.00;100862.12;106178;1256;71769;-72
2023/08/05 00:59:35;;;;;;;12.50;6.40;;;;;;;14.44;100.00;100861.83;106017;1256;62036;-72
2023/08/05 01:02:02;;;;;;;10.00;6.50;;;;;;;14.41;100.00;100870.19;105877;1256;61303;-73
2023/08/05 01:04:30;;;;;;;9.90;6.40;;;;;;;14.39;100.00;100866.96;105792;1260;74786;-73
2023/08/05 01:06:58;;;;;;;11.30;6.20;;;;;;;14.36;100.00;100868.51;105759;1258;69940;-73
2023/08/05 01:09:26;;;;;;;13.60;6.70;;;;;;;14.33;100.00;100867.58;105959;1260;72448;-71
2023/08/05 01:11:53;;;;;;;11.30;6.20;;;;;;;14.29;100.00;100867.80;105667;1261;62099;-72
2023/08/05 01:14:19;;;;;;;9.60;6.20;;;;;;;14.25;100.00;100862.45;105834;1257;61257;-74
2023/08/05 01:16:46;;;;;;;11.50;5.80;;;;;;;14.22;100.00;100858.76;105747;1256;74677;-72
2023/08/05 01:19:23;;;;;;;10.80;6.10;;;;;;;14.18;100.00;100858.52;106023;1256;70023;-72
2023/08/05 01:22:10;;;;;;;11.00;6.20;;;;;;;14.14;100.00;100858.70;105769;1256;71753;-72
2023/08/05 01:24:44;;;;;;;10.90;6.00;;;;;;;14.08;100.00;100849.27;105738;1256;61551;-73
2023/08/05 01:27:11;;;;;;;11.90;6.30;;;;;;;14.03;100.00;100850.45;105858;1256;61282;-72
2023/08/05 01:29:38;;;;;;;11.40;6.10;;;;;;;14.00;100.00;100849.79;105817;1256;73369;-72
2023/08/05 01:32:07;;;;;;;11.00;6.10;;;;;;;13.97;100.00;100850.71;105800;1256;71583;-73
2023/08/05 01:34:34;;;;;;;9.80;5.80;;;;;;;13.94;100.00;100849.52;105725;1256;71501;-73
2023/08/05 01:37:01;;;;;;;11.50;6.30;;;;;;;13.89;100.00;100844.61;105817;1256;62104;-72
2023/08/05 01:39:28;;;;;;;11.30;6.50;;;;;;;13.86;100.00;100845.81;105719;1257;62170;-72
2023/08/05 01:41:54;;;;;;;12.20;6.40;;;;;;;13.82;100.00;100845.75;105679;1257;73952;-71
2023/08/05 01:44:22;;;;;;;14.00;6.10;;;;;;;13.79;100.00;100853.98;105672;1261;61299;-72
2023/08/05 01:46:49;;;;;;;13.10;6.40;;;;;;;13.77;100.00;100856.57;105909;1258;72777;-72
2023/08/05 01:49:16;;;;;;;14.70;6.30;;;;;;;13.74;100.00;100852.45;105614;1257;61299;-72
2023/08/05 01:51:43;;;;;;;11.50;6.50;;;;;;;13.71;100.00;100851.80;105676;1261;61362;-73
2023/08/05 01:54:10;;;;;;;10.00;6.30;;;;;;;13.69;100.00;100856.34;105788;1261;73681;-72
2023/08/05 01:56:36;;;;;;;11.50;6.00;;;;;;;13.67;100.00;100861.04;105734;1261;71297;-73
2023/08/05 01:59:03;;;;;;;11.50;6.20;;;;;;;13.64;100.00;100867.28;105832;1257;72691;-73
2023/08/05 02:01:40;;;;;;;9.90;6.50;;;;;;;13.62;100.00;100867.88;105783;1260;61288;-72
2023/08/05 02:04:07;;;;;;;11.40;6.30;;;;;;;13.59;100.00;100867.18;105718;1257;61383;-72
2023/08/05 02:06:34;;;;;;;12.90;6.80;;;;;;;13.57;100.00;100869.35;105796;1262;73511;-72
2023/08/05 02:09:00;;;;;;;12.20;6.50;;;;;;;13.55;100.00;100873.69;105840;1262;71271;-71
2023/08/05 02:11:27;;;;;;;13.30;6.80;;;;;;;13.52;100.00;100870.73;105756;1256;71933;-72
2023/08/05 02:13:54;;;;;;;14.00;6.50;;;;;;;13.53;100.00;100869.43;105862;1257;62099;-71
2023/08/05 02:16:21;;;;;;;13.10;6.20;;;;;;;13.50;100.00;100872.55;105770;1260;61684;-72
2023/08/05 02:18:52;;;;;;;10.70;6.80;;;;;;;13.48;100.00;100873.23;106063;1260;74741;-72
2023/08/05 02:21:19;;;;;;;11.20;6.70;;;;;;;13.45;100.00;100873.99;105776;1261;69978;-73
2023/08/05 02:23:45;;;;;;;12.20;6.70;;;;;;;13.42;100.00;100875.06;105636;1259;71518;-72
2023/08/05 02:26:12;;;;;;;13.00;7.10;;;;;;;13.39;100.00;100873.64;105714;1261;61124;-72
2023/08/05 02:28:39;;;;;;;11.60;6.70;;;;;;;13.37;100.00;100871.65;105951;1261;61193;-72
2023/08/05 02:31:06;;;;;;;11.80;6.70;;;;;;;13.34;100.00;100865.06;105693;1259;72887;-72
2023/08/05 02:33:33;;;;;;;14.10;7.00;;;;;;;13.33;100.00;100860.95;105611;1261;70429;-72
2023/08/05 02:36:00;;;;;;;12.40;7.00;;;;;;;13.29;100.00;100852.17;105652;1263;71701;-73
2023/08/05 02:38:26;;;;;;;15.80;7.30;;;;;;;13.28;100.00;100846.45;105908;1261;62097;-73
2023/08/05 02:40:53;;;;;;;12.80;7.20;;;;;;;13.26;100.00;100846.30;105911;1262;61328;-72
2023/08/05 02:43:20;;;;;;;16.60;7.90;;;;;;;13.25;100.00;100843.29;105803;1261;74116;-73
2023/08/05 02:45:57;;;;;;;23.90;10.50;;;;;;;13.24;100.00;100843.01;105610;1259;71156;-73
2023/08/05 02:48:24;;;;;;;21.90;12.10;;;;;;;13.23;100.00;100849.16;105886;1260;72787;-72
2023/08/05 02:50:52;;;;;;;29.60;14.10;;;;;;;13.23;100.00;100852.77;105979;1260;61633;-72
2023/08/05 02:53:20;;;;;;;36.80;16.80;;;;;;;13.22;100.00;100850.77;105770;1261;61516;-72
2023/08/05 02:55:47;;;;;;;37.80;18.60;;;;;;;13.21;100.00;100852.25;105757;1260;72751;-72
2023/08/05 02:58:15;;;;;;;42.90;21.40;;;;;;;13.22;100.00;100850.22;105776;1260;69930;-71
2023/08/05 03:00:42;;;;;;;46.10;19.90;;;;;;;13.22;100.00;100853.52;106007;1257;73172;-71
2023/08/05 03:03:10;;;;;;;40.40;20.00;;;;;;;13.24;100.00;100846.43;105815;1262;61385;-71
2023/08/05 03:05:37;;;;;;;46.70;23.70;;;;;;;13.27;100.00;100841.80;105847;1257;61383;-71
2023/08/05 03:08:04;;;;;;;52.00;23.80;;;;;;;13.30;100.00;100839.44;105763;1261;74317;-72
2023/08/05 03:10:31;;;;;;;49.60;22.30;;;;;;;13.35;100.00;100836.38;105882;1260;70092;-72
2023/08/05 03:12:58;;;;;;;46.90;21.90;;;;;;;13.40;100.00;100841.05;105798;1259;72755;-71
2023/08/05 03:15:28;;;;;;;50.60;22.90;;;;;;;13.46;100.00;100845.30;105680;1262;61869;-72
2023/08/05 03:17:55;;;;;;;50.10;22.80;;;;;;;13.52;100.00;100845.67;105729;1260;61382;-73
2023/08/05 03:20:29;;;;;;;49.30;22.40;;;;;;;13.57;100.00;100843.97;105842;1261;74730;-73
2023/08/05 03:22:56;;;;;;;49.60;22.00;;;;;;;13.62;100.00;100842.66;105838;1261;70191;-73
2023/08/05 03:25:25;;;;;;;42.90;20.60;;;;;;;13.67;100.00;100839.71;105721;1261;73834;-73
2023/08/05 03:27:52;;;;;;;46.90;20.40;;;;;;;13.72;100.00;100845.54;105660;1264;61178;-73
2023/08/05 03:30:19;;;;;;;42.70;20.70;;;;;;;13.77;100.00;100845.86;105785;1261;61722;-73
2023/08/05 03:32:47;;;;;;;34.40;16.60;;;;;;;13.83;100.00;100841.16;105908;1257;73505;-73
2023/08/05 03:35:15;;;;;;;31.10;16.70;;;;;;;13.88;100.00;100840.50;105808;1257;71180;-74
2023/08/05 03:37:43;;;;;;;35.80;16.60;;;;;;;13.92;100.00;100838.69;105638;1262;71932;-72
2023/08/05 03:40:11;;;;;;;33.40;16.00;;;;;;;13.97;100.00;100844.80;105727;1257;61292;-73
2023/08/05 03:42:38;;;;;;;30.70;15.10;;;;;;;14.01;100.00;100849.30;105892;1257;61538;-73
2023/08/05 03:45:05;;;;;;;29.00;14.70;;;;;;;14.04;100.00;100851.09;105638;1261;73444;-73
2023/08/05 03:47:33;;;;;;;31.60;16.10;;;;;;;14.09;100.00;100852.52;105646;1261;69989;-73
2023/08/05 03:50:00;;;;;;;30.50;14.90;;;;;;;14.15;100.00;100848.14;105702;1262;71289;-73
2023/08/05 03:52:29;;;;;;;28.90;14.90;;;;;;;14.17;100.00;100841.95;105942;1260;61158;-73
2023/08/05 03:54:56;;;;;;;28.10;13.70;;;;;;;14.20;100.00;100841.39;105701;1256;61257;-72
2023/08/05 03:57:23;;;;;;;23.90;12.00;;;;;;;14.25;100.00;100842.13;105745;1261;73137;-73
2023/08/05 03:59:50;;;;;;;24.90;11.30;;;;;;;14.30;100.00;100832.91;105781;1260;70126;-72
2023/08/05 04:02:17;;;;;;;22.30;11.30;;;;;;;14.33;100.00;100827.80;105723;1260;71596;-73
2023/08/05 04:04:44;;;;;;;21.10;10.40;;;;;;;14.39;100.00;100826.61;105967;1258;62398;-72
2023/08/05 04:07:12;;;;;;;17.00;10.40;;;;;;;14.44;100.00;100827.66;105721;1258;61252;-72
2023/08/05 04:09:40;;;;;;;19.70;9.60;;;;;;;14.49;100.00;100831.30;105795;1258;74559;-72
2023/08/05 04:12:09;;;;;;;18.00;8.60;;;;;;;14.52;100.00;100825.08;105646;1261;71244;-72
2023/08/05 04:14:37;;;;;;;15.30;8.80;;;;;;;14.54;100.00;100826.77;105828;1262;73173;-73
2023/08/05 04:17:05;;;;;;;15.50;8.80;;;;;;;14.56;100.00;100823.39;105772;1261;61890;-72
2023/08/05 04:19:33;;;;;;;15.50;8.30;;;;;;;14.61;100.00;100828.11;105914;1261;61233;-72
2023/08/05 04:22:01;;;;;;;13.30;7.80;;;;;;;14.64;100.00;100832.80;105914;1257;74468;-70
2023/08/05 04:24:29;;;;;;;14.80;7.60;;;;;;;14.67;100.00;100840.01;105997;1257;71442;-71
2023/08/05 04:26:57;;;;;;;11.30;7.00;;;;;;;14.70;100.00;100844.09;105905;1257;72408;-71
2023/08/05 04:29:24;;;;;;;13.60;7.50;;;;;;;14.75;100.00;100849.48;105710;1260;61978;-72
2023/08/05 04:31:54;;;;;;;13.50;7.60;;;;;;;14.81;100.00;100852.27;105877;1257;61279;-72
2023/08/05 04:34:21;;;;;;;13.40;7.30;;;;;;;14.83;100.00;100842.42;105985;1260;73511;-72
2023/08/05 04:36:50;;;;;;;12.90;7.50;;;;;;;14.86;100.00;100839.52;105763;1257;71114;-72
2023/08/05 04:39:21;;;;;;;12.60;7.70;;;;;;;14.88;100.00;100837.95;105706;1257;71458;-72
2023/08/05 04:41:48;;;;;;;13.90;7.10;;;;;;;14.91;100.00;100834.11;105721;1258;62036;-72
2023/08/05 04:44:15;;;;;;;10.10;7.20;;;;;;;14.94;100.00;100826.19;105854;1257;61246;-72
2023/08/05 04:46:42;;;;;;;12.50;7.10;;;;;;;15.00;100.00;100826.33;105762;1257;74637;-72
2023/08/05 04:49:11;;;;;;;9.10;6.80;;;;;;;15.06;100.00;100828.35;105722;1257;70000;-72
2023/08/05 04:51:38;;;;;;;13.90;7.00;;;;;;;15.13;100.00;100826.77;105668;1260;221877;-72
2023/08/05 04:54:05;;;;;;;10.80;7.20;;;;;;;15.20;100.00;100824.61;105669;1260;61303;-72
2023/08/05 04:56:33;;;;;;;11.00;6.70;;;;;;;15.26;100.00;100829.36;105835;1257;61482;-71
2023/08/05 04:59:00;;;;;;;10.70;6.80;;;;;;;15.31;100.00;100830.48;105838;1260;72729;-71
2023/08/05 05:01:27;;;;;;;9.80;6.80;;;;;;;15.36;100.00;100833.11;105756;1257;70854;-71
2023/08/05 05:03:54;;;;;;;10.70;6.50;;;;;;;15.44;100.00;100828.23;105678;1258;71502;-71
2023/08/05 05:06:24;;;;;;;10.80;6.30;;;;;;;15.50;100.00;100835.68;105878;1263;61346;-72
2023/08/05 05:08:51;;;;;;;13.20;6.90;;;;;;;15.56;100.00;100836.60;105711;1257;61256;-72
2023/08/05 05:11:18;;;;;;;10.30;6.50;;;;;;;15.60;100.00;100831.99;105821;1258;74746;-72
2023/08/05 05:13:47;;;;;;;10.50;6.50;;;;;;;15.63;100.00;100828.23;105630;1258;70101;-71
2023/08/05 05:16:13;;;;;;;10.40;6.60;;;;;;;15.67;100.00;100833.43;105996;1258;72654;-72
2023/08/05 05:18:40;;;;;;;9.00;6.40;;;;;;;15.76;100.00;100836.15;105697;1257;61864;-71
2023/08/05 05:21:07;;;;;;;11.40;6.20;;;;;;;15.83;100.00;100838.41;105679;1258;61736;-71
2023/08/05 05:23:34;;;;;;;11.10;6.50;;;;;;;15.88;100.00;100838.56;105667;1260;74728;-71
2023/08/05 05:26:01;;;;;;;10.90;6.00;;;;;;;15.95;100.00;100843.02;105734;1257;71177;-71
2023/08/05 05:28:27;;;;;;;7.40;5.60;;;;;;;16.02;100.00;100845.36;105788;1258;72769;-72
2023/08/05 05:30:54;;;;;;;9.20;5.70;;;;;;;16.07;100.00;100850.50;105759;1257;62138;-72
2023/08/05 05:33:21;;;;;;;7.90;5.50;;;;;;;16.11;100.00;100849.38;105655;1257;61466;-71
2023/08/05 05:35:49;;;;;;;9.10;5.50;;;;;;;16.14;100.00;100851.34;105607;1257;73894;-72
2023/08/05 05:38:16;;;;;;;7.50;5.60;;;;;;;16.18;100.00;100853.29;105810;1257;71218;-73
2023/08/05 05:40:43;;;;;;;7.60;5.80;;;;;;;16.21;100.00;100851.95;105675;1260;71465;-72
2023/08/05 05:43:10;;;;;;;9.80;6.40;;;;;;;16.26;100.00;100856.08;105854;1260;61325;-72
2023/08/05 05:45:37;;;;;;;9.20;5.90;;;;;;;16.36;100.00;100858.08;105720;1258;61261;-72
2023/08/05 05:48:04;;;;;;;8.10;5.50;;;;;;;16.44;100.00;100859.37;105748;1256;73509;-73
2023/08/05 05:50:31;;;;;;;6.80;5.30;;;;;;;16.55;100.00;100864.16;105818;1258;68914;-71
2023/08/05 05:52:58;;;;;;;9.30;5.40;;;;;;;16.65;100.00;100867.27;105713;1257;70646;-71
2023/08/05 05:55:25;;;;;;;9.70;5.70;;;;;;;16.75;100.00;100870.79;105724;1257;62583;-71
2023/08/05 05:57:52;;;;;;;8.70;5.20;;;;;;;16.81;100.00;100876.38;105830;1261;61156;-71
2023/08/05 06:00:19;;;;;;;7.20;5.00;;;;;;;16.84;100.00;100880.67;105891;1256;72481;-73
2023/08/05 06:02:46;;;;;;;9.00;5.20;;;;;;;16.87;100.00;100880.49;105770;1260;70076;-72
2023/08/05 06:05:13;;;;;;;9.30;5.50;;;;;;;16.89;100.00;100871.25;105656;1260;71859;-72
2023/08/05 06:07:40;;;;;;;7.10;5.10;;;;;;;16.91;100.00;100868.86;105807;1260;62020;-72
2023/08/05 06:10:07;;;;;;;9.20;5.00;;;;;;;16.97;100.00;100871.96;105762;1257;61181;-72
2023/08/05 06:12:36;;;;;;;7.40;5.20;;;;;;;17.03;100.00;100874.90;106027;1257;72651;-71
2023/08/05 06:15:07;;;;;;;8.00;5.30;;;;;;;17.09;100.00;100871.37;105844;1260;69928;-72
2023/08/05 06:17:34;;;;;;;7.60;5.10;;;;;;;17.18;100.00;100867.45;105843;1260;72695;-71
2023/08/05 06:20:01;;;;;;;8.30;5.10;;;;;;;17.29;100.00;100865.20;105898;1258;62014;-71
2023/08/05 06:22:28;;;;;;;8.40;5.10;;;;;;;17.39;100.00;100867.70;106177;1257;61872;-71
2023/08/05 06:24:54;;;;;;;6.90;5.20;;;;;;;17.49;100.00;100865.36;105981;1258;73430;-71
2023/08/05 06:27:21;;;;;;;6.70;4.90;;;;;;;17.58;100.00;100866.30;106042;1257;71184;-70
2023/08/05 06:29:48;;;;;;;6.70;4.30;;;;;;;17.65;100.00;100864.40;105600;1261;72677;-72
2023/08/05 06:32:15;;;;;;;7.60;4.30;;;;;;;17.73;100.00;100864.48;105854;1260;63162;-71
2023/08/05 06:34:42;;;;;;;7.90;4.80;;;;;;;17.81;100.00;100861.23;105847;1257;60373;-73
2023/08/05 06:37:08;;;;;;;6.90;4.40;;;;;;;17.90;100.00;100857.95;105551;1260;73475;-72
2023/08/05 06:39:35;;;;;;;7.00;4.30;;;;;;;17.98;100.00;100853.30;105663;1261;70452;-72
2023/08/05 06:42:02;;;;;;;6.90;4.60;;;;;;;18.09;100.00;100858.48;106109;1258;72002;-73
2023/08/05 06:44:29;;;;;;;6.80;4.30;;;;;;;18.20;100.00;100850.83;106096;1257;62692;-72
2023/08/05 06:46:56;;;;;;;6.80;4.30;;;;;;;18.29;100.00;100847.34;105838;1257;61163;-72
2023/08/05 06:49:23;;;;;;;8.00;4.10;;;;;;;18.40;99.78;100846.95;105964;1260;74697;-71
2023/08/05 06:51:50;;;;;;;7.50;4.00;;;;;;;18.49;98.26;100841.05;106023;1258;70022;-72
2023/08/05 06:54:21;;;;;;;7.50;4.30;;;;;;;18.56;98.31;100834.80;106302;1257;72703;-72
2023/08/05 06:56:49;;;;;;;9.70;4.50;;;;;;;18.66;98.09;100830.21;105974;1258;61363;-72
2023/08/05 06:59:17;;;;;;;8.20;3.90;;;;;;;18.78;97.46;100831.85;105832;1257;61207;-71
2023/08/05 07:01:43;;;;;;;6.80;3.80;;;;;;;18.89;97.13;100823.55;105835;1256;73948;-71
2023/08/05 07:04:10;;;;;;;9.60;4.00;;;;;;;19.06;97.52;100818.17;105933;1257;69976;-73
2023/08/05 07:06:38;;;;;;;7.70;3.60;;;;;;;19.30;97.00;100813.25;106027;1257;71760;-72
2023/08/05 07:09:05;;;;;;;10.50;5.00;;;;;;;19.51;96.12;100805.23;106221;1257;62549;-72
2023/08/05 07:11:32;;;;;;;7.90;4.00;;;;;;;19.70;95.05;100803.70;106065;1257;61649;-74
2023/08/05 07:13:59;;;;;;;7.50;3.60;;;;;;;19.83;93.59;100800.85;106677;1258;73478;-71
2023/08/05 07:16:26;;;;;;;7.30;3.00;;;;;;;19.91;91.40;100804.05;106932;1256;69951;-71
2023/08/05 07:18:53;;;;;;;7.40;3.30;;;;;;;20.01;90.07;100808.46;108110;1257;72378;-70
2023/08/05 07:21:20;;;;;;;6.30;2.60;;;;;;;20.17;89.93;100806.56;106692;1257;61371;-73
2023/08/05 07:23:46;;;;;;;7.80;3.20;;;;;;;20.30;88.23;100799.41;106883;1257;61261;-71
2023/08/05 07:26:13;;;;;;;6.50;3.10;;;;;;;20.46;88.06;100800.00;106389;1257;72468;-72
2023/08/05 07:28:40;;;;;;;8.60;2.70;;;;;;;20.64;87.39;100801.14;106362;1257;70017;-71
2023/08/05 07:31:10;;;;;;;5.00;2.30;;;;;;;20.80;85.64;100801.52;105723;1257;70692;-72
2023/08/05 07:33:37;;;;;;;5.40;2.30;;;;;;;20.99;84.99;100801.77;105914;1258;62003;-71
2023/08/05 07:36:09;;;;;;;6.00;2.50;;;;;;;21.10;82.12;100800.73;105742;1258;61727;-71
2023/08/05 07:38:39;;;;;;;5.90;2.10;;;;;;;21.16;81.21;100801.69;105985;1257;74669;-71
2023/08/05 07:41:11;;;;;;;4.60;1.70;;;;;;;21.18;78.59;100800.80;105698;1257;70888;-72
2023/08/05 07:43:38;;;;;;;5.10;1.70;;;;;;;21.11;75.65;100799.14;105698;1257;72616;-71
2023/08/05 07:46:06;;;;;;;6.00;2.30;;;;;;;21.09;75.28;100791.55;105792;1257;61371;-72
2023/08/05 07:48:37;;;;;;;5.30;2.00;;;;;;;21.15;74.53;100790.30;105989;1257;61299;-71
2023/08/05 07:51:06;;;;;;;5.60;1.90;;;;;;;21.26;73.85;100787.95;105886;1260;73467;-70
2023/08/05 07:53:35;;;;;;;5.00;2.00;;;;;;;21.37;73.46;100785.39;105753;1257;69804;-70
2023/08/05 07:56:10;;;;;;;4.20;1.50;;;;;;;21.49;72.15;100785.55;106040;1259;71328;-71
2023/08/05 07:58:42;;;;;;;4.70;1.50;;;;;;;21.61;71.44;100786.45;105811;1257;61939;-71
2023/08/05 08:01:11;;;;;;;6.20;1.70;;;;;;;21.81;70.61;100780.27;105894;1258;61405;-72
2023/08/05 08:03:40;;;;;;;5.20;1.90;;;;;;;21.94;68.24;100780.77;106647;1257;74942;-70
2023/08/05 08:06:07;;;;;;;4.30;1.50;;;;;;;22.03;67.78;100779.45;107790;1257;71208;-73
2023/08/05 08:08:34;;;;;;;4.70;1.50;;;;;;;22.14;67.84;100775.70;106099;1257;71574;-72
2023/08/05 08:11:00;;;;;;;8.20;1.50;;;;;;;22.24;66.61;100773.80;106206;1257;62085;-73
2023/08/05 08:13:27;;;;;;;4.70;1.50;;;;;;;22.34;66.77;100776.10;106205;1257;61227;-73
2023/08/05 08:15:54;;;;;;;5.00;1.50;;;;;;;22.42;66.10;100776.20;105796;1258;73511;-72
2023/08/05 08:18:21;;;;;;;5.50;1.60;;;;;;;22.42;65.23;100776.95;105769;1260;61287;-72
2023/08/05 08:20:49;;;;;;;7.20;2.20;;;;;;;22.49;65.41;100775.84;105818;1257;71459;-72
2023/08/05 08:23:16;;;;;;;4.50;1.80;;;;;;;22.60;65.49;100771.60;106032;1261;61457;-72
2023/08/05 08:25:43;;;;;;;4.70;1.60;;;;;;;22.63;64.88;100767.23;106177;1261;61222;-72
2023/08/05 08:28:10;;;;;;;4.80;1.50;;;;;;;22.59;64.40;100763.91;105847;1257;74719;-71
2023/08/05 08:30:37;;;;;;;5.30;1.60;;;;;;;22.49;64.49;100763.69;106138;1258;69929;-71
2023/08/05 08:33:04;;;;;;;4.70;1.50;;;;;;;22.46;65.11;100766.13;105667;1261;72170;-72
2023/08/05 08:35:30;;;;;;;4.30;1.40;;;;;;;22.47;64.97;100759.17;105755;1258;61386;-71
2023/08/05 08:37:57;;;;;;;8.20;2.20;;;;;;;22.50;65.17;100754.89;105952;1258;61328;-73
2023/08/05 08:40:24;;;;;;;4.90;1.50;;;;;;;22.55;65.35;100753.97;105769;1258;74628;-71
2023/08/05 08:42:51;;;;;;;4.00;1.60;;;;;;;22.63;65.75;100752.27;106119;1260;70458;-70
2023/08/05 08:45:20;;;;;;;4.10;1.70;;;;;;;22.72;65.60;100748.20;106223;1258;71844;-72
2023/08/05 08:47:49;;;;;;;4.40;1.60;;;;;;;22.74;64.18;100747.63;106134;1258;61298;-72
2023/08/05 08:50:17;;;;;;;4.90;1.80;;;;;;;22.72;63.47;100740.48;106378;1257;61365;-72
2023/08/05 08:52:46;;;;;;;4.20;1.50;;;;;;;22.74;63.16;100737.56;105998;1262;73294;-72
2023/08/05 08:55:15;;;;;;;3.30;1.70;;;;;;;22.76;62.46;100729.46;106253;1257;70041;-73
2023/08/05 08:57:42;;;;;;;4.60;1.70;;;;;;;22.85;62.70;100726.42;105923;1258;74006;-73
2023/08/05 09:00:10;;;;;;;3.30;1.50;;;;;;;22.83;61.08;100719.37;106161;1258;61274;-71
2023/08/05 09:02:37;;;;;;;4.10;1.50;;;;;;;22.82;61.39;100716.71;105988;1257;61236;-71
2023/08/05 09:05:04;;;;;;;5.30;1.80;;;;;;;23.11;62.51;100710.94;105894;1258;75506;-72
2023/08/05 09:07:31;;;;;;;4.70;1.60;;;;;;;23.35;61.74;100708.73;106215;1257;71287;-71
2023/08/05 09:10:03;;;;;;;6.00;1.70;;;;;;;23.59;60.71;100703.09;106043;1257;71565;-72
2023/08/05 09:12:31;;;;;;;5.60;1.90;;;;;;;23.86;59.72;100703.50;106529;1257;61370;-73
2023/08/05 09:14:58;;;;;;;4.30;1.50;;;;;;;24.10;58.77;100704.95;106355;1257;62458;-73
2023/08/05 09:17:26;;;;;;;4.00;1.40;;;;;;;24.28;57.06;100709.85;106196;1258;72263;-72
2023/08/05 09:19:53;;;;;;;3.40;1.30;;;;;;;24.23;54.42;100712.71;106477;1257;71233;-72
2023/08/05 09:22:20;;;;;;;3.20;1.50;;;;;;;24.07;54.44;100712.54;105807;1263;71766;-71
2023/08/05 09:24:47;;;;;;;4.00;1.70;;;;;;;23.96;55.40;100713.30;105779;1258;61159;-72
2023/08/05 09:27:14;;;;;;;3.90;1.40;;;;;;;24.09;56.30;100709.94;106052;1258;61271;-71
2023/08/05 09:29:40;;;;;;;3.20;1.40;;;;;;;24.16;55.06;100708.56;105837;1260;73946;-72
2023/08/05 09:32:07;;;;;;;4.00;1.40;;;;;;;24.14;53.50;100706.11;106181;1257;70825;-70
2023/08/05 09:34:35;;;;;;;3.30;1.50;;;;;;;24.15;53.99;100704.50;106049;1257;72480;-71
2023/08/05 09:37:02;;;;;;;4.00;1.40;;;;;;;24.09;53.45;100694.38;105988;1258;61194;-72
2023/08/05 09:39:46;;;;;;;5.00;1.20;;;;;;;24.07;52.81;100692.54;105837;1258;61382;-70
2023/08/05 09:42:25;;;;;;;3.70;1.50;;;;;;;23.83;51.58;100686.04;105785;1257;73331;-73
2023/08/05 09:44:54;;;;;;;2.50;1.10;;;;;;;23.59;52.15;100682.91;105778;1257;71256;-73
2023/08/05 09:47:25;;;;;;;3.80;1.20;;;;;;;23.50;53.13;100679.98;106024;1257;72362;-70
2023/08/05 09:49:52;;;;;;;3.80;1.20;;;;;;;23.43;53.47;100680.11;105821;1257;61834;-69
2023/08/05 09:52:23;;;;;;;3.20;1.30;;;;;;;23.32;53.50;100675.86;105806;1256;61335;-69
2023/08/05 09:55:00;;;;;;;4.20;1.40;;;;;;;23.29;53.80;100677.20;105892;1260;74693;-69
2023/08/05 09:57:29;;;;;;;4.40;1.40;;;;;;;23.43;53.74;100666.23;106208;1257;71195;-70
2023/08/05 10:00:00;;;;;;;3.20;1.30;;;;;;;23.54;52.98;100662.89;105883;1257;72554;-69
2023/08/05 10:02:27;;;;;;;2.40;1.10;;;;;;;23.60;53.16;100656.27;106589;1258;61171;-71
2023/08/05 10:04:55;;;;;;;4.60;1.20;;;;;;;23.75;53.54;100655.54;106458;1256;61775;-71
2023/08/05 10:07:27;;;;;;;3.30;1.30;;;;;;;23.91;52.95;100655.52;106085;1261;74134;-71
2023/08/05 10:09:54;;;;;;;3.80;1.30;;;;;;;23.99;51.94;100663.40;106192;1258;71777;-71
2023/08/05 10:12:32;;;;;;;4.70;1.30;;;;;;;23.99;51.52;100661.98;106161;1259;70843;-71
2023/08/05 10:15:00;;;;;;;3.50;1.40;;;;;;;23.93;52.31;100653.64;106039;1257;61493;-72
2023/08/05 10:17:28;;;;;;;3.20;1.30;;;;;;;23.91;51.28;100652.16;106226;1257;61373;-74
2023/08/05 10:19:55;;;;;;;2.60;1.30;;;;;;;23.78;51.19;100656.16;106854;1257;73155;-70
2023/08/05 10:22:23;;;;;;;3.50;1.20;;;;;;;23.81;50.57;100652.55;106196;1257;69982;-71
2023/08/05 10:24:55;;;;;;;3.90;1.00;;;;;;;23.92;50.10;100650.53;105992;1257;71841;-70
2023/08/05 10:27:39;;;;;;;2.70;1.10;;;;;;;24.13;49.80;100648.60;105960;1257;61294;-69
2023/08/05 10:30:09;;;;;;;2.90;1.00;;;;;;;24.41;49.26;100644.16;106539;1258;61775;-70
2023/08/05 10:32:48;;;;;;;3.90;1.20;;;;;;;24.73;49.20;100641.89;106209;1257;74093;-70
2023/08/05 10:35:30;;;;;;;2.10;0.90;;;;;;;25.13;48.91;100634.84;106724;1257;70735;-70
2023/08/05 10:38:19;;;;;;;3.10;1.30;;;;;;;25.53;48.20;100626.66;106532;1258;72366;-71
2023/08/05 10:41:03;;;;;;;3.50;1.30;;;;;;;25.80;48.19;100624.45;106219;1257;61591;-70
2023/08/05 10:43:30;;;;;;;4.90;1.10;;;;;;;26.05;47.88;100630.94;106468;1258;61269;-71
2023/08/05 10:46:06;;;;;;;2.80;1.00;;;;;;;26.16;47.36;100624.78;108735;1257;74985;-71
2023/08/05 10:48:42;;;;;;;3.90;1.10;;;;;;;26.21;46.32;100618.44;107852;1257;69736;-71
2023/08/05 10:51:12;;;;;;;4.30;1.30;;;;;;;26.23;45.82;100616.31;107486;1257;71578;-71
2023/08/05 10:53:42;;;;;;;5.60;1.30;;;;;;;26.36;46.64;100612.75;107463;1257;59323;-70
2023/08/05 10:56:14;;;;;;;2.70;1.10;;;;;;;26.57;47.01;100610.71;107021;1257;61274;-70
2023/08/05 10:58:50;;;;;;;3.40;1.40;;;;;;;26.78;46.33;100606.29;106557;1257;74965;-72
2023/08/05 11:01:18;;;;;;;2.30;1.30;;;;;;;26.81;44.60;100595.43;106693;1257;71190;-72
2023/08/05 11:03:50;;;;;;;3.10;0.90;;;;;;;26.98;45.27;100594.13;106351;1261;71457;-72
2023/08/05 11:06:24;;;;;;;2.40;1.00;;;;;;;27.12;43.00;100594.81;106210;1257;61205;-74
2023/08/05 11:08:51;;;;;;;2.30;1.00;;;;;;;27.09;41.41;100590.92;106095;1257;61341;-71
2023/08/05 11:11:19;;;;;;;4.80;1.30;;;;;;;26.98;40.95;100589.89;105913;1257;74717;-71